sensor_id;sensor_type;location;lat;lon;timestamp;P1;durP1;ratioP1;P2;durP2;ratioP2
47173;SDS011;36730;49.036;9.094;2022-10-23T00:00:47;86.53;;;40.37;;
47173;SDS011;36730;49.036;9.094;2022-10-23T00:03:13;103.40;;;40.70;;
47173;SDS011;36730;49.036;9.094;2022-10-23T00:05:38;77.17;;;37.87;;
47173;SDS011;36730;49.036;9.094;2022-10-23T00:08:05;83.80;;;42.08;;
47173;SDS011;36730;49.036;9.094;2022-10-23T00:15:22;79.43;;;41.47;;
47173;SDS011;36730;49.036;9.094;2022-10-23T00:17:48;84.05;;;38.25;;
47173;SDS011;36730;49.036;9.094;2022-10-23T00:20:15;85.60;;;36.80;;
47173;SDS011;36730;49.036;9.094;2022-10-23T00:22:41;83.18;;;38.65;;
47173;SDS011;36730;49.036;9.094;2022-10-23T00:25:07;76.83;;;35.93;;
47173;SDS011;36730;49.036;9.094;2022-10-23T00:27:33;86.53;;;38.65;;
47173;SDS011;36730;49.036;9.094;2022-10-23T00:29:59;75.97;;;39.25;;
47173;SDS011;36730;49.036;9.094;2022-10-23T00:32:25;94.70;;;40.97;;
47173;SDS011;36730;49.036;9.094;2022-10-23T00:34:51;77.03;;;41.08;;
47173;SDS011;36730;49.036;9.094;2022-10-23T00:37:17;71.18;;;37.70;;
47173;SDS011;36730;49.036;9.094;2022-10-23T00:39:43;74.57;;;37.13;;
47173;SDS011;36730;49.036;9.094;2022-10-23T00:42:09;71.63;;;37.43;;
47173;SDS011;36730;49.036;9.094;2022-10-23T00:47:05;83.83;;;41.20;;
47173;SDS011;36730;49.036;9.094;2022-10-23T00:49:31;77.03;;;36.80;;
47173;SDS011;36730;49.036;9.094;2022-10-23T00:51:58;96.13;;;41.65;;
47173;SDS011;36730;49.036;9.094;2022-10-23T00:54:28;75.65;;;38.50;;
47173;SDS011;36730;49.036;9.094;2022-10-23T00:57:00;76.22;;;35.85;;
47173;SDS011;36730;49.036;9.094;2022-10-23T00:59:28;71.20;;;36.15;;
47173;SDS011;36730;49.036;9.094;2022-10-23T01:06:51;80.05;;;36.72;;
47173;SDS011;36730;49.036;9.094;2022-10-23T01:14:57;68.00;;;34.30;;
47173;SDS011;36730;49.036;9.094;2022-10-23T01:17:41;71.00;;;33.75;;
47173;SDS011;36730;49.036;9.094;2022-10-23T01:20:30;68.95;;;34.83;;
47173;SDS011;36730;49.036;9.094;2022-10-23T01:28:56;74.75;;;36.67;;
47173;SDS011;36730;49.036;9.094;2022-10-23T01:31:36;71.38;;;35.83;;
47173;SDS011;36730;49.036;9.094;2022-10-23T01:34:11;73.93;;;35.67;;
47173;SDS011;36730;49.036;9.094;2022-10-23T01:36:46;73.10;;;35.38;;
47173;SDS011;36730;49.036;9.094;2022-10-23T01:39:14;70.28;;;34.45;;
47173;SDS011;36730;49.036;9.094;2022-10-23T01:41:47;69.05;;;34.55;;
47173;SDS011;36730;49.036;9.094;2022-10-23T01:46:54;71.05;;;33.58;;
47173;SDS011;36730;49.036;9.094;2022-10-23T01:49:22;72.15;;;36.85;;
47173;SDS011;36730;49.036;9.094;2022-10-23T01:51:53;72.45;;;35.53;;
47173;SDS011;36730;49.036;9.094;2022-10-23T01:54:22;73.18;;;37.17;;
47173;SDS011;36730;49.036;9.094;2022-10-23T01:56:52;68.18;;;34.38;;
47173;SDS011;36730;49.036;9.094;2022-10-23T01:59:20;67.03;;;33.17;;
47173;SDS011;36730;49.036;9.094;2022-10-23T02:01:50;72.95;;;35.15;;
47173;SDS011;36730;49.036;9.094;2022-10-23T02:04:23;65.65;;;35.75;;
47173;SDS011;36730;49.036;9.094;2022-10-23T02:06:52;63.80;;;32.00;;
47173;SDS011;36730;49.036;9.094;2022-10-23T02:09:18;66.50;;;34.30;;
47173;SDS011;36730;49.036;9.094;2022-10-23T02:11:52;73.77;;;32.90;;
47173;SDS011;36730;49.036;9.094;2022-10-23T02:17:13;67.55;;;32.55;;
47173;SDS011;36730;49.036;9.094;2022-10-23T02:19:46;68.85;;;33.08;;
47173;SDS011;36730;49.036;9.094;2022-10-23T02:22:29;67.75;;;33.20;;
47173;SDS011;36730;49.036;9.094;2022-10-23T02:25:03;70.00;;;34.92;;
47173;SDS011;36730;49.036;9.094;2022-10-23T02:30:09;63.28;;;31.20;;
47173;SDS011;36730;49.036;9.094;2022-10-23T02:32:38;66.18;;;32.50;;
47173;SDS011;36730;49.036;9.094;2022-10-23T02:35:08;72.45;;;33.05;;
47173;SDS011;36730;49.036;9.094;2022-10-23T02:37:34;73.40;;;34.10;;
47173;SDS011;36730;49.036;9.094;2022-10-23T02:39:59;79.73;;;34.40;;
47173;SDS011;36730;49.036;9.094;2022-10-23T02:42:28;71.87;;;34.10;;
47173;SDS011;36730;49.036;9.094;2022-10-23T02:47:59;71.95;;;34.50;;
47173;SDS011;36730;49.036;9.094;2022-10-23T02:58:59;73.47;;;35.40;;
47173;SDS011;36730;49.036;9.094;2022-10-23T03:01:35;68.07;;;33.60;;
47173;SDS011;36730;49.036;9.094;2022-10-23T03:04:05;77.20;;;34.28;;
47173;SDS011;36730;49.036;9.094;2022-10-23T03:06:34;67.47;;;33.17;;
47173;SDS011;36730;49.036;9.094;2022-10-23T03:09:04;60.97;;;32.13;;
47173;SDS011;36730;49.036;9.094;2022-10-23T03:11:31;66.93;;;32.50;;
47173;SDS011;36730;49.036;9.094;2022-10-23T03:13:57;63.77;;;32.03;;
47173;SDS011;36730;49.036;9.094;2022-10-23T03:16:22;72.67;;;35.20;;
47173;SDS011;36730;49.036;9.094;2022-10-23T03:18:48;69.27;;;32.23;;
47173;SDS011;36730;49.036;9.094;2022-10-23T03:21:14;66.27;;;31.83;;
47173;SDS011;36730;49.036;9.094;2022-10-23T03:23:39;66.93;;;32.73;;
47173;SDS011;36730;49.036;9.094;2022-10-23T03:26:05;71.23;;;32.90;;
47173;SDS011;36730;49.036;9.094;2022-10-23T03:28:30;63.90;;;30.40;;
47173;SDS011;36730;49.036;9.094;2022-10-23T03:30:56;58.30;;;30.67;;
47173;SDS011;36730;49.036;9.094;2022-10-23T03:33:22;73.33;;;35.63;;
47173;SDS011;36730;49.036;9.094;2022-10-23T03:35:47;66.37;;;31.83;;
47173;SDS011;36730;49.036;9.094;2022-10-23T03:38:13;85.78;;;35.80;;
47173;SDS011;36730;49.036;9.094;2022-10-23T03:40:39;72.15;;;34.22;;
47173;SDS011;36730;49.036;9.094;2022-10-23T03:43:06;65.97;;;32.88;;
47173;SDS011;36730;49.036;9.094;2022-10-23T03:45:31;61.27;;;32.63;;
47173;SDS011;36730;49.036;9.094;2022-10-23T03:47:57;69.17;;;32.77;;
47173;SDS011;36730;49.036;9.094;2022-10-23T03:50:23;60.23;;;30.60;;
47173;SDS011;36730;49.036;9.094;2022-10-23T03:52:49;73.55;;;34.38;;
47173;SDS011;36730;49.036;9.094;2022-10-23T03:55:15;74.50;;;35.00;;
47173;SDS011;36730;49.036;9.094;2022-10-23T03:57:40;66.97;;;34.30;;
47173;SDS011;36730;49.036;9.094;2022-10-23T04:00:06;69.50;;;35.60;;
47173;SDS011;36730;49.036;9.094;2022-10-23T04:02:32;68.60;;;33.75;;
47173;SDS011;36730;49.036;9.094;2022-10-23T04:04:58;69.73;;;35.00;;
47173;SDS011;36730;49.036;9.094;2022-10-23T04:07:24;71.43;;;37.63;;
47173;SDS011;36730;49.036;9.094;2022-10-23T04:09:49;70.20;;;34.20;;
47173;SDS011;36730;49.036;9.094;2022-10-23T04:12:15;69.77;;;33.80;;
47173;SDS011;36730;49.036;9.094;2022-10-23T04:14:40;65.27;;;33.20;;
47173;SDS011;36730;49.036;9.094;2022-10-23T04:17:06;74.00;;;35.43;;
47173;SDS011;36730;49.036;9.094;2022-10-23T04:19:31;70.60;;;33.10;;
47173;SDS011;36730;49.036;9.094;2022-10-23T04:21:57;68.40;;;35.17;;
47173;SDS011;36730;49.036;9.094;2022-10-23T04:24:23;73.77;;;35.20;;
47173;SDS011;36730;49.036;9.094;2022-10-23T04:26:49;66.07;;;33.15;;
47173;SDS011;36730;49.036;9.094;2022-10-23T04:29:14;71.37;;;34.73;;
47173;SDS011;36730;49.036;9.094;2022-10-23T04:31:40;67.90;;;33.57;;
47173;SDS011;36730;49.036;9.094;2022-10-23T04:34:06;77.00;;;36.07;;
47173;SDS011;36730;49.036;9.094;2022-10-23T04:36:31;67.70;;;34.33;;
47173;SDS011;36730;49.036;9.094;2022-10-23T04:38:57;66.03;;;32.13;;
47173;SDS011;36730;49.036;9.094;2022-10-23T04:41:22;66.40;;;34.37;;
47173;SDS011;36730;49.036;9.094;2022-10-23T04:43:48;62.50;;;31.33;;
47173;SDS011;36730;49.036;9.094;2022-10-23T04:46:13;67.80;;;33.23;;
47173;SDS011;36730;49.036;9.094;2022-10-23T04:48:39;72.70;;;33.97;;
47173;SDS011;36730;49.036;9.094;2022-10-23T04:51:05;74.33;;;38.27;;
47173;SDS011;36730;49.036;9.094;2022-10-23T04:53:30;72.73;;;34.17;;
47173;SDS011;36730;49.036;9.094;2022-10-23T04:55:57;78.20;;;35.43;;
47173;SDS011;36730;49.036;9.094;2022-10-23T04:58:23;67.03;;;34.83;;
47173;SDS011;36730;49.036;9.094;2022-10-23T05:00:50;65.22;;;34.58;;
47173;SDS011;36730;49.036;9.094;2022-10-23T05:03:16;71.28;;;35.60;;
47173;SDS011;36730;49.036;9.094;2022-10-23T05:05:42;73.03;;;37.08;;
47173;SDS011;36730;49.036;9.094;2022-10-23T05:08:08;72.00;;;34.92;;
47173;SDS011;36730;49.036;9.094;2022-10-23T05:10:34;75.10;;;36.28;;
47173;SDS011;36730;49.036;9.094;2022-10-23T05:13:00;71.83;;;36.00;;
47173;SDS011;36730;49.036;9.094;2022-10-23T05:17:54;69.82;;;34.78;;
47173;SDS011;36730;49.036;9.094;2022-10-23T05:20:24;73.55;;;35.83;;
47173;SDS011;36730;49.036;9.094;2022-10-23T05:22:54;63.10;;;34.65;;
47173;SDS011;36730;49.036;9.094;2022-10-23T05:25:21;77.30;;;37.38;;
47173;SDS011;36730;49.036;9.094;2022-10-23T05:27:47;72.77;;;36.20;;
47173;SDS011;36730;49.036;9.094;2022-10-23T05:30:12;78.80;;;39.07;;
47173;SDS011;36730;49.036;9.094;2022-10-23T05:32:38;74.33;;;36.97;;
47173;SDS011;36730;49.036;9.094;2022-10-23T05:35:08;69.47;;;33.03;;
47173;SDS011;36730;49.036;9.094;2022-10-23T05:37:40;62.97;;;32.85;;
47173;SDS011;36730;49.036;9.094;2022-10-23T05:40:08;69.95;;;35.47;;
47173;SDS011;36730;49.036;9.094;2022-10-23T05:42:34;69.97;;;34.25;;
47173;SDS011;36730;49.036;9.094;2022-10-23T05:45:00;75.23;;;37.40;;
47173;SDS011;36730;49.036;9.094;2022-10-23T05:47:25;71.60;;;37.63;;
47173;SDS011;36730;49.036;9.094;2022-10-23T05:49:51;70.73;;;35.77;;
47173;SDS011;36730;49.036;9.094;2022-10-23T05:52:16;71.53;;;36.53;;
47173;SDS011;36730;49.036;9.094;2022-10-23T05:54:44;73.50;;;34.38;;
47173;SDS011;36730;49.036;9.094;2022-10-23T05:57:09;66.57;;;33.23;;
47173;SDS011;36730;49.036;9.094;2022-10-23T05:59:35;67.07;;;34.70;;
47173;SDS011;36730;49.036;9.094;2022-10-23T06:02:00;74.67;;;37.07;;
47173;SDS011;36730;49.036;9.094;2022-10-23T06:04:26;81.60;;;37.53;;
47173;SDS011;36730;49.036;9.094;2022-10-23T06:06:52;63.03;;;33.20;;
47173;SDS011;36730;49.036;9.094;2022-10-23T06:09:17;74.60;;;36.23;;
47173;SDS011;36730;49.036;9.094;2022-10-23T06:11:43;70.20;;;36.30;;
47173;SDS011;36730;49.036;9.094;2022-10-23T06:14:08;68.40;;;34.17;;
47173;SDS011;36730;49.036;9.094;2022-10-23T06:16:34;72.10;;;34.53;;
47173;SDS011;36730;49.036;9.094;2022-10-23T06:19:00;69.60;;;33.90;;
47173;SDS011;36730;49.036;9.094;2022-10-23T06:21:25;69.23;;;35.73;;
47173;SDS011;36730;49.036;9.094;2022-10-23T06:23:51;75.33;;;40.90;;
47173;SDS011;36730;49.036;9.094;2022-10-23T06:26:17;135.93;;;49.80;;
47173;SDS011;36730;49.036;9.094;2022-10-23T06:31:13;102.00;;;46.38;;
47173;SDS011;36730;49.036;9.094;2022-10-23T06:33:40;128.23;;;55.78;;
47173;SDS011;36730;49.036;9.094;2022-10-23T06:36:06;121.18;;;64.57;;
47173;SDS011;36730;49.036;9.094;2022-10-23T06:38:34;133.18;;;62.25;;
47173;SDS011;36730;49.036;9.094;2022-10-23T06:41:04;129.48;;;65.63;;
47173;SDS011;36730;49.036;9.094;2022-10-23T06:43:32;126.40;;;63.55;;
47173;SDS011;36730;49.036;9.094;2022-10-23T06:46:02;117.68;;;60.97;;
47173;SDS011;36730;49.036;9.094;2022-10-23T06:48:28;124.63;;;64.95;;
47173;SDS011;36730;49.036;9.094;2022-10-23T06:50:54;133.63;;;64.55;;
47173;SDS011;36730;49.036;9.094;2022-10-23T06:53:19;130.80;;;68.30;;
47173;SDS011;36730;49.036;9.094;2022-10-23T06:55:47;132.98;;;69.30;;
47173;SDS011;36730;49.036;9.094;2022-10-23T06:58:13;156.15;;;78.43;;
47173;SDS011;36730;49.036;9.094;2022-10-23T07:00:39;142.37;;;77.63;;
47173;SDS011;36730;49.036;9.094;2022-10-23T07:03:04;184.23;;;90.20;;
47173;SDS011;36730;49.036;9.094;2022-10-23T07:05:32;168.80;;;83.15;;
47173;SDS011;36730;49.036;9.094;2022-10-23T07:07:58;172.73;;;87.40;;
47173;SDS011;36730;49.036;9.094;2022-10-23T07:10:23;178.83;;;93.03;;
47173;SDS011;36730;49.036;9.094;2022-10-23T07:12:49;172.60;;;89.50;;
47173;SDS011;36730;49.036;9.094;2022-10-23T07:15:14;187.90;;;94.30;;
47173;SDS011;36730;49.036;9.094;2022-10-23T07:17:40;231.52;;;113.35;;
47173;SDS011;36730;49.036;9.094;2022-10-23T07:20:06;225.63;;;110.70;;
47173;SDS011;36730;49.036;9.094;2022-10-23T07:22:31;226.95;;;113.75;;
47173;SDS011;36730;49.036;9.094;2022-10-23T07:24:57;244.80;;;123.67;;
47173;SDS011;36730;49.036;9.094;2022-10-23T07:27:23;261.80;;;123.67;;
47173;SDS011;36730;49.036;9.094;2022-10-23T07:29:49;245.15;;;117.10;;
47173;SDS011;36730;49.036;9.094;2022-10-23T07:32:15;298.10;;;142.00;;
47173;SDS011;36730;49.036;9.094;2022-10-23T07:34:40;287.80;;;141.47;;
47173;SDS011;36730;49.036;9.094;2022-10-23T07:37:06;277.67;;;138.40;;
47173;SDS011;36730;49.036;9.094;2022-10-23T07:39:31;291.70;;;140.33;;
47173;SDS011;36730;49.036;9.094;2022-10-23T07:41:57;308.57;;;146.27;;
47173;SDS011;36730;49.036;9.094;2022-10-23T07:44:22;308.40;;;145.03;;
47173;SDS011;36730;49.036;9.094;2022-10-23T07:46:48;343.57;;;168.80;;
47173;SDS011;36730;49.036;9.094;2022-10-23T07:49:14;297.63;;;152.80;;
47173;SDS011;36730;49.036;9.094;2022-10-23T07:51:39;285.63;;;147.00;;
47173;SDS011;36730;49.036;9.094;2022-10-23T07:54:06;273.93;;;136.90;;
47173;SDS011;36730;49.036;9.094;2022-10-23T07:56:33;326.77;;;150.70;;
47173;SDS011;36730;49.036;9.094;2022-10-23T07:58:58;293.03;;;147.83;;
47173;SDS011;36730;49.036;9.094;2022-10-23T08:01:30;352.17;;;170.07;;
47173;SDS011;36730;49.036;9.094;2022-10-23T08:03:58;325.20;;;164.48;;
47173;SDS011;36730;49.036;9.094;2022-10-23T08:06:24;329.65;;;164.30;;
47173;SDS011;36730;49.036;9.094;2022-10-23T08:08:49;282.88;;;150.57;;
47173;SDS011;36730;49.036;9.094;2022-10-23T08:11:16;299.07;;;156.50;;
47173;SDS011;36730;49.036;9.094;2022-10-23T08:13:48;357.85;;;181.23;;
47173;SDS011;36730;49.036;9.094;2022-10-23T08:16:14;305.92;;;160.95;;
47173;SDS011;36730;49.036;9.094;2022-10-23T08:18:40;331.77;;;174.87;;
47173;SDS011;36730;49.036;9.094;2022-10-23T08:21:06;314.02;;;161.07;;
47173;SDS011;36730;49.036;9.094;2022-10-23T08:23:32;290.90;;;157.70;;
47173;SDS011;36730;49.036;9.094;2022-10-23T08:26:04;363.60;;;179.33;;
47173;SDS011;36730;49.036;9.094;2022-10-23T08:28:31;349.50;;;176.57;;
47173;SDS011;36730;49.036;9.094;2022-10-23T08:30:57;333.88;;;173.73;;
47173;SDS011;36730;49.036;9.094;2022-10-23T08:33:23;351.40;;;181.50;;
47173;SDS011;36730;49.036;9.094;2022-10-23T08:35:49;353.73;;;172.20;;
47173;SDS011;36730;49.036;9.094;2022-10-23T08:38:15;337.83;;;174.23;;
47173;SDS011;36730;49.036;9.094;2022-10-23T08:40:45;352.27;;;173.60;;
47173;SDS011;36730;49.036;9.094;2022-10-23T08:46:00;317.27;;;163.50;;
47173;SDS011;36730;49.036;9.094;2022-10-23T08:48:33;340.33;;;181.77;;
47173;SDS011;36730;49.036;9.094;2022-10-23T08:53:51;351.38;;;182.07;;
47173;SDS011;36730;49.036;9.094;2022-10-23T08:56:30;360.27;;;185.90;;
47173;SDS011;36730;49.036;9.094;2022-10-23T09:02:03;359.35;;;179.50;;
47173;SDS011;36730;49.036;9.094;2022-10-23T09:04:37;361.42;;;183.38;;
47173;SDS011;36730;49.036;9.094;2022-10-23T09:12:25;361.88;;;179.45;;
47173;SDS011;36730;49.036;9.094;2022-10-23T09:17:36;370.35;;;185.20;;
47173;SDS011;36730;49.036;9.094;2022-10-23T09:22:47;370.83;;;186.77;;
47173;SDS011;36730;49.036;9.094;2022-10-23T09:25:21;367.70;;;186.40;;
47173;SDS011;36730;49.036;9.094;2022-10-23T09:27:54;376.88;;;191.40;;
47173;SDS011;36730;49.036;9.094;2022-10-23T09:30:25;375.33;;;191.60;;
47173;SDS011;36730;49.036;9.094;2022-10-23T09:33:23;369.48;;;192.55;;
47173;SDS011;36730;49.036;9.094;2022-10-23T09:36:02;379.35;;;194.45;;
47173;SDS011;36730;49.036;9.094;2022-10-23T09:38:36;358.92;;;189.00;;
47173;SDS011;36730;49.036;9.094;2022-10-23T09:44:10;358.50;;;185.38;;
47173;SDS011;36730;49.036;9.094;2022-10-23T09:46:47;364.70;;;198.45;;
47173;SDS011;36730;49.036;9.094;2022-10-23T09:49:25;369.55;;;189.82;;
47173;SDS011;36730;49.036;9.094;2022-10-23T09:51:58;376.30;;;202.88;;
47173;SDS011;36730;49.036;9.094;2022-10-23T09:54:38;383.90;;;195.40;;
47173;SDS011;36730;49.036;9.094;2022-10-23T09:57:28;364.08;;;193.77;;
47173;SDS011;36730;49.036;9.094;2022-10-23T10:00:00;380.55;;;197.57;;
47173;SDS011;36730;49.036;9.094;2022-10-23T10:02:38;371.33;;;194.40;;
47173;SDS011;36730;49.036;9.094;2022-10-23T10:05:23;362.67;;;191.70;;
47173;SDS011;36730;49.036;9.094;2022-10-23T10:08:05;357.20;;;190.05;;
47173;SDS011;36730;49.036;9.094;2022-10-23T10:10:45;366.13;;;196.02;;
47173;SDS011;36730;49.036;9.094;2022-10-23T10:13:31;380.10;;;196.02;;
47173;SDS011;36730;49.036;9.094;2022-10-23T10:16:14;373.45;;;195.88;;
47173;SDS011;36730;49.036;9.094;2022-10-23T10:19:09;381.73;;;199.30;;
47173;SDS011;36730;49.036;9.094;2022-10-23T10:22:02;384.42;;;198.88;;
47173;SDS011;36730;49.036;9.094;2022-10-23T10:24:50;376.10;;;200.25;;
47173;SDS011;36730;49.036;9.094;2022-10-23T10:30:04;371.77;;;195.90;;
47173;SDS011;36730;49.036;9.094;2022-10-23T10:33:01;352.88;;;193.85;;
47173;SDS011;36730;49.036;9.094;2022-10-23T10:35:36;357.52;;;192.07;;
47173;SDS011;36730;49.036;9.094;2022-10-23T10:41:19;359.40;;;193.85;;
47173;SDS011;36730;49.036;9.094;2022-10-23T10:46:32;359.52;;;193.35;;
47173;SDS011;36730;49.036;9.094;2022-10-23T10:49:27;361.48;;;193.50;;
47173;SDS011;36730;49.036;9.094;2022-10-23T10:52:08;379.70;;;197.55;;
47173;SDS011;36730;49.036;9.094;2022-10-23T10:54:49;373.13;;;197.65;;
47173;SDS011;36730;49.036;9.094;2022-10-23T10:57:29;380.52;;;205.02;;
47173;SDS011;36730;49.036;9.094;2022-10-23T11:00:03;383.38;;;202.18;;
47173;SDS011;36730;49.036;9.094;2022-10-23T11:02:38;389.05;;;206.52;;
47173;SDS011;36730;49.036;9.094;2022-10-23T11:08:09;371.98;;;200.68;;
47173;SDS011;36730;49.036;9.094;2022-10-23T11:10:43;415.17;;;222.15;;
47173;SDS011;36730;49.036;9.094;2022-10-23T11:13:44;386.15;;;211.88;;
47173;SDS011;36730;49.036;9.094;2022-10-23T11:18:55;404.60;;;219.40;;
47173;SDS011;36730;49.036;9.094;2022-10-23T11:30:11;380.85;;;206.93;;
47173;SDS011;36730;49.036;9.094;2022-10-23T11:32:51;404.35;;;216.13;;
47173;SDS011;36730;49.036;9.094;2022-10-23T11:40:50;383.60;;;204.27;;
47173;SDS011;36730;49.036;9.094;2022-10-23T11:43:28;376.45;;;204.85;;
47173;SDS011;36730;49.036;9.094;2022-10-23T11:46:11;376.38;;;200.30;;
47173;SDS011;36730;49.036;9.094;2022-10-23T11:48:53;376.65;;;204.63;;
47173;SDS011;36730;49.036;9.094;2022-10-23T12:02:54;395.10;;;210.93;;
47173;SDS011;36730;49.036;9.094;2022-10-23T12:04:56;379.55;;;204.32;;
47173;SDS011;36730;49.036;9.094;2022-10-23T12:07:27;382.45;;;209.13;;
47173;SDS011;36730;49.036;9.094;2022-10-23T12:10:05;396.88;;;210.75;;
47173;SDS011;36730;49.036;9.094;2022-10-23T12:12:41;402.23;;;217.90;;
47173;SDS011;36730;49.036;9.094;2022-10-23T12:17:43;404.42;;;223.85;;
47173;SDS011;36730;49.036;9.094;2022-10-23T12:22:53;379.25;;;207.55;;
47173;SDS011;36730;49.036;9.094;2022-10-23T12:31:24;402.80;;;218.52;;
47173;SDS011;36730;49.036;9.094;2022-10-23T12:39:23;431.08;;;234.73;;
47173;SDS011;36730;49.036;9.094;2022-10-23T12:41:57;424.25;;;230.85;;
47173;SDS011;36730;49.036;9.094;2022-10-23T12:44:24;423.42;;;233.68;;
47173;SDS011;36730;49.036;9.094;2022-10-23T12:46:55;403.02;;;226.05;;
47173;SDS011;36730;49.036;9.094;2022-10-23T12:49:24;414.23;;;228.48;;
47173;SDS011;36730;49.036;9.094;2022-10-23T12:51:58;416.55;;;239.25;;
47173;SDS011;36730;49.036;9.094;2022-10-23T12:54:38;419.70;;;234.23;;
47173;SDS011;36730;49.036;9.094;2022-10-23T12:57:18;423.70;;;236.70;;
47173;SDS011;36730;49.036;9.094;2022-10-23T12:59:50;436.35;;;247.45;;
47173;SDS011;36730;49.036;9.094;2022-10-23T13:02:21;415.38;;;233.45;;
47173;SDS011;36730;49.036;9.094;2022-10-23T13:04:47;444.70;;;253.07;;
47173;SDS011;36730;49.036;9.094;2022-10-23T13:07:14;454.67;;;246.68;;
47173;SDS011;36730;49.036;9.094;2022-10-23T13:09:44;448.45;;;251.20;;
47173;SDS011;36730;49.036;9.094;2022-10-23T13:12:23;439.50;;;250.82;;
47173;SDS011;36730;49.036;9.094;2022-10-23T13:17:42;436.92;;;247.20;;
47173;SDS011;36730;49.036;9.094;2022-10-23T13:22:42;436.90;;;243.80;;
47173;SDS011;36730;49.036;9.094;2022-10-23T13:25:28;429.70;;;242.97;;
47173;SDS011;36730;49.036;9.094;2022-10-23T13:30:42;438.15;;;239.57;;
47173;SDS011;36730;49.036;9.094;2022-10-23T13:33:23;448.75;;;250.65;;
47173;SDS011;36730;49.036;9.094;2022-10-23T13:35:56;438.25;;;248.02;;
47173;SDS011;36730;49.036;9.094;2022-10-23T13:38:27;443.35;;;248.75;;
47173;SDS011;36730;49.036;9.094;2022-10-23T13:41:01;461.13;;;261.48;;
47173;SDS011;36730;49.036;9.094;2022-10-23T13:43:28;453.58;;;258.45;;
47173;SDS011;36730;49.036;9.094;2022-10-23T13:45:56;445.88;;;251.90;;
47173;SDS011;36730;49.036;9.094;2022-10-23T13:48:23;439.10;;;246.70;;
47173;SDS011;36730;49.036;9.094;2022-10-23T13:50:49;433.50;;;240.10;;
47173;SDS011;36730;49.036;9.094;2022-10-23T13:53:14;438.63;;;243.70;;
47173;SDS011;36730;49.036;9.094;2022-10-23T13:55:41;422.00;;;241.00;;
47173;SDS011;36730;49.036;9.094;2022-10-23T13:58:09;426.52;;;238.80;;
47173;SDS011;36730;49.036;9.094;2022-10-23T14:00:35;427.23;;;241.10;;
47173;SDS011;36730;49.036;9.094;2022-10-23T14:03:01;425.58;;;237.10;;
47173;SDS011;36730;49.036;9.094;2022-10-23T14:05:28;418.30;;;233.38;;
47173;SDS011;36730;49.036;9.094;2022-10-23T14:07:53;426.63;;;231.68;;
47173;SDS011;36730;49.036;9.094;2022-10-23T14:10:19;409.55;;;233.07;;
47173;SDS011;36730;49.036;9.094;2022-10-23T14:15:11;416.90;;;230.35;;
47173;SDS011;36730;49.036;9.094;2022-10-23T14:17:37;424.03;;;231.83;;
47173;SDS011;36730;49.036;9.094;2022-10-23T14:20:03;406.92;;;223.68;;
47173;SDS011;36730;49.036;9.094;2022-10-23T14:24:54;397.88;;;212.82;;
47173;SDS011;36730;49.036;9.094;2022-10-23T14:27:20;385.37;;;213.57;;
47173;SDS011;36730;49.036;9.094;2022-10-23T14:29:45;378.20;;;204.03;;
47173;SDS011;36730;49.036;9.094;2022-10-23T14:32:11;371.90;;;201.07;;
47173;SDS011;36730;49.036;9.094;2022-10-23T14:34:40;365.83;;;197.57;;
47173;SDS011;36730;49.036;9.094;2022-10-23T14:37:07;380.80;;;202.05;;
47173;SDS011;36730;49.036;9.094;2022-10-23T14:39:33;346.67;;;190.43;;
47173;SDS011;36730;49.036;9.094;2022-10-23T14:41:59;359.00;;;192.32;;
47173;SDS011;36730;49.036;9.094;2022-10-23T14:44:24;336.17;;;182.77;;
47173;SDS011;36730;49.036;9.094;2022-10-23T14:46:50;347.90;;;183.20;;
47173;SDS011;36730;49.036;9.094;2022-10-23T14:49:16;357.92;;;196.65;;
47173;SDS011;36730;49.036;9.094;2022-10-23T14:51:41;336.43;;;185.63;;
47173;SDS011;36730;49.036;9.094;2022-10-23T14:54:07;323.17;;;173.23;;
47173;SDS011;36730;49.036;9.094;2022-10-23T14:56:34;337.00;;;182.50;;
47173;SDS011;36730;49.036;9.094;2022-10-23T14:59:01;339.85;;;179.52;;
47173;SDS011;36730;49.036;9.094;2022-10-23T15:01:28;327.42;;;171.45;;
47173;SDS011;36730;49.036;9.094;2022-10-23T15:03:54;313.63;;;168.70;;
47173;SDS011;36730;49.036;9.094;2022-10-23T15:06:21;301.40;;;161.40;;
47173;SDS011;36730;49.036;9.094;2022-10-23T15:08:50;316.00;;;167.02;;
47173;SDS011;36730;49.036;9.094;2022-10-23T15:11:19;288.50;;;158.98;;
47173;SDS011;36730;49.036;9.094;2022-10-23T15:16:10;305.15;;;157.88;;
47173;SDS011;36730;49.036;9.094;2022-10-23T15:18:36;282.63;;;151.95;;
47173;SDS011;36730;49.036;9.094;2022-10-23T15:21:03;290.15;;;149.05;;
47173;SDS011;36730;49.036;9.094;2022-10-23T15:23:30;283.15;;;144.93;;
47173;SDS011;36730;49.036;9.094;2022-10-23T15:26:01;299.48;;;159.40;;
47173;SDS011;36730;49.036;9.094;2022-10-23T15:28:29;264.98;;;142.85;;
47173;SDS011;36730;49.036;9.094;2022-10-23T15:30:55;246.07;;;137.50;;
47173;SDS011;36730;49.036;9.094;2022-10-23T15:33:21;278.20;;;146.73;;
47173;SDS011;36730;49.036;9.094;2022-10-23T15:35:47;257.83;;;141.95;;
47173;SDS011;36730;49.036;9.094;2022-10-23T15:38:14;265.70;;;141.85;;
47173;SDS011;36730;49.036;9.094;2022-10-23T15:40:40;281.45;;;146.52;;
47173;SDS011;36730;49.036;9.094;2022-10-23T15:43:05;262.15;;;140.95;;
47173;SDS011;36730;49.036;9.094;2022-10-23T15:45:31;268.40;;;141.00;;
47173;SDS011;36730;49.036;9.094;2022-10-23T15:47:57;250.38;;;135.93;;
47173;SDS011;36730;49.036;9.094;2022-10-23T15:50:23;260.38;;;136.38;;
47173;SDS011;36730;49.036;9.094;2022-10-23T15:52:49;248.15;;;136.55;;
47173;SDS011;36730;49.036;9.094;2022-10-23T15:55:15;248.00;;;134.63;;
47173;SDS011;36730;49.036;9.094;2022-10-23T15:57:41;246.75;;;135.30;;
47173;SDS011;36730;49.036;9.094;2022-10-23T16:00:07;256.97;;;134.63;;
47173;SDS011;36730;49.036;9.094;2022-10-23T16:02:34;234.05;;;127.90;;
47173;SDS011;36730;49.036;9.094;2022-10-23T16:05:01;241.10;;;131.50;;
47173;SDS011;36730;49.036;9.094;2022-10-23T16:07:27;262.20;;;140.57;;
47173;SDS011;36730;49.036;9.094;2022-10-23T16:09:53;256.98;;;131.27;;
47173;SDS011;36730;49.036;9.094;2022-10-23T16:12:18;241.50;;;128.77;;
47173;SDS011;36730;49.036;9.094;2022-10-23T16:14:44;252.03;;;133.70;;
47173;SDS011;36730;49.036;9.094;2022-10-23T16:17:10;238.10;;;132.02;;
47173;SDS011;36730;49.036;9.094;2022-10-23T16:19:37;241.77;;;127.45;;
47173;SDS011;36730;49.036;9.094;2022-10-23T16:22:02;237.20;;;129.48;;
47173;SDS011;36730;49.036;9.094;2022-10-23T16:24:29;241.25;;;130.07;;
47173;SDS011;36730;49.036;9.094;2022-10-23T16:26:54;228.60;;;124.07;;
47173;SDS011;36730;49.036;9.094;2022-10-23T16:29:21;227.38;;;123.50;;
47173;SDS011;36730;49.036;9.094;2022-10-23T16:31:51;236.63;;;123.30;;
47173;SDS011;36730;49.036;9.094;2022-10-23T16:34:18;235.82;;;123.47;;
47173;SDS011;36730;49.036;9.094;2022-10-23T16:36:44;227.27;;;121.32;;
47173;SDS011;36730;49.036;9.094;2022-10-23T16:39:11;216.65;;;114.95;;